Latest Weather Observations for Edithburgh

IDS60801

Issued at 2:21 pm CST Monday 23 September 2019 (issued every 10 minutes, with the page automatically refreshed every 10 minutes)

About weather observations | Map of weather stations | Latest weather observations for SA | Other Formats
Station Details ID: 022046 Name: EDITHBURGH Lat: -35.11 Lon: 137.74 Height: 6.0 m
Data from the previous 72 hours. | See also: Recent months at Edithburgh
Date/Time
CST
Temp
°C
App
Temp
°C
Dew
Point
°C
Rel
Hum
%
Delta-T
°C
Wind Press
QNH
hPa
Press
MSL
hPa
Rain since
9am
mm
Dir  Spd
km/h
Gust
km/h
Spd
kts
Gust
kts
23/02:00pm 15.2 13.0 9.3 68 3.0 W 11 17 6 9 1029.9 1029.9 0.0
23/01:30pm 14.5 11.6 8.2 66 3.1 WSW 13 22 7 12 1030.1 1030.1 0.0
23/01:00pm 14.6 11.0 8.5 67 3.1 SSW 17 24 9 13 1030.1 1030.1 0.0
23/12:30pm 14.1 10.5 9.9 76 2.2 SSW 19 26 10 14 1030.4 1030.4 0.0
23/12:00pm 13.9 10.5 10.7 81 1.7 SW 19 28 10 15 1030.5 1030.5 0.0
23/11:30am 13.7 11.4 10.3 80 1.8 SW 13 17 7 9 1030.6 1030.6 0.0
23/11:00am 13.1 10.4 10.5 84 1.4 SW 15 19 8 10 1030.7 1030.7 0.0
23/10:30am 13.6 11.2 10.2 80 1.7 SW 13 19 7 10 1030.5 1030.5 0.0
23/10:00am 13.4 12.1 11.1 86 1.2 SW 9 15 5 8 1030.5 1030.5 0.0
23/09:30am 12.8 12.0 11.2 90 0.8 SW 6 9 3 5 1030.5 1030.5 0.0
23/09:00am 13.2 12.3 12.6 96 0.3 SW 9 15 5 8 1030.3 1030.3 6.0
23/08:30am 10.7 9.8 10.7 100 0.0 W 6 11 3 6 1030.4 1030.4 6.0
23/08:00am 10.6 9.5 10.6 100 0.0 WNW 7 9 4 5 1030.1 1030.1 5.8
23/07:30am 9.4 8.0 9.4 100 0.0 NW 7 9 4 5 1029.8 1029.8 5.8
23/07:00am 8.8 6.8 8.8 100 0.0 WNW 9 11 5 6 1029.7 1029.7 5.8
23/06:30am 6.0 3.4 6.0 100 0.0 WNW 9 11 5 6 1029.3 1029.3 5.8
23/06:00am 5.5 2.4 5.5 100 0.0 NW 11 13 6 7 1028.9 1028.9 5.8
23/05:30am 6.2 3.2 6.2 100 0.0 NW 11 13 6 7 1028.5 1028.5 5.8
23/05:00am 4.5 1.6 4.5 100 0.0 NW 9 15 5 8 1028.3 1028.3 5.8
23/04:30am 4.3 1.0 4.3 100 0.0 NW 11 15 6 8 1028.0 1028.0 5.8
23/04:00am 5.3 2.5 5.3 100 0.0 WNW 9 13 5 7 1027.6 1027.6 5.8
23/03:30am 5.6 2.9 5.6 100 0.0 WNW 9 13 5 7 1027.3 1027.3 5.8
23/03:00am 7.2 5.2 7.2 100 0.0 W 7 13 4 7 1027.2 1027.2 5.8
23/02:30am 9.1 6.7 8.5 96 0.3 WSW 11 17 6 9 1027.1 1027.1 5.8
23/02:00am 9.2 6.6 9.2 100 0.0 SW 13 20 7 11 1027.1 1027.1 5.8
23/01:30am 9.2 6.4 8.7 97 0.2 WSW 13 24 7 13 1027.1 1027.1 5.8
23/01:00am 7.0 4.6 7.0 100 0.0 WSW 9 19 5 10 1027.0 1027.0 5.8
23/12:30am 6.6 4.1 6.6 100 0.0 WNW 9 13 5 7 1027.0 1027.0 5.8
23/12:00am 7.3 5.0 7.3 100 0.0 WNW 9 13 5 7 1026.9 1026.9 5.8
 
Date/Time
CST
Temp
°C
App
Temp
°C
Dew
Point
°C
Rel
Hum
%
Delta-T
°C
Wind Press
QNH
hPa
Press
MSL
hPa
Rain since
9am
mm
Dir  Spd
km/h
Gust
km/h
Spd
kts
Gust
kts
22/11:30pm 9.1 6.7 8.5 96 0.3 WSW 11 19 6 10 1026.9 1026.9 5.8
22/11:00pm 8.5 6.5 8.5 100 0.0 WSW 9 15 5 8 1026.8 1026.8 5.6
22/10:30pm 7.2 4.8 7.2 100 0.0 WNW 9 17 5 9 1026.7 1026.7 5.6
22/10:00pm 7.9 5.3 7.9 100 0.0 WNW 11 13 6 7 1026.5 1026.5 5.6
22/09:30pm 8.4 6.3 8.4 100 0.0 WNW 9 13 5 7 1026.2 1026.2 5.6
22/09:00pm 9.3 6.7 9.3 100 0.0 WSW 13 20 7 11 1026.0 1026.0 5.6
22/08:30pm 8.7 6.3 8.7 100 0.0 WSW 11 13 6 7 1025.7 1025.7 5.6
22/08:00pm 9.5 6.9 9.5 100 0.0 WNW 13 17 7 9 1025.7 1025.7 5.4
22/07:30pm 9.1 6.1 9.1 100 0.0 WNW 15 19 8 10 1025.1 1025.1 5.2
22/07:00pm 9.5 4.9 9.5 100 0.0 WNW 24 32 13 17 1024.7 1024.7 4.0
22/06:30pm 10.0 5.5 10.0 100 0.0 W 24 35 13 19 1024.2 1024.2 3.8
22/06:00pm 11.4 7.7 10.1 92 0.7 WNW 20 30 11 16 1023.9 1023.9 3.2
22/05:30pm 12.4 8.9 10.8 90 0.8 WNW 20 30 11 16 1023.5 1023.5 3.2
22/05:00pm 13.0 9.8 11.1 88 1.0 WNW 19 30 10 16 1023.3 1023.2 3.2
22/04:30pm 12.5 7.9 12.2 98 0.2 WNW 28 43 15 23 1023.3 1023.2 3.2
22/04:00pm 12.9 9.1 11.0 88 1.0 WNW 22 33 12 18 1022.9 1022.8 3.0
22/03:30pm 12.4 9.4 11.9 97 0.3 WNW 19 32 10 17 1022.8 1022.7 3.0
22/03:00pm 13.0 7.5 10.4 84 1.3 NW 30 39 16 21 1022.7 1022.6 1.4
22/02:30pm 14.0 8.3 11.9 87 1.1 NW 33 46 18 25 1023.1 1023.0 1.4
22/02:16pm 13.2 9.4 12.3 94 0.5 WNW 24 43 13 23 1023.1 1023.0 1.4
22/02:00pm 11.3 9.2 11.3 100 0.0 WNW 13 26 7 14 1023.3 1023.2 1.4
22/01:30pm 13.5 6.8 9.7 78 1.9 NW 35 52 19 28 1023.3 1023.2 0.4
22/01:00pm 14.3 9.1 11.5 83 1.5 WNW 30 46 16 25 1023.4 1023.4 0.4
22/12:30pm 12.9 7.7 10.3 84 1.3 WNW 28 37 15 20 1023.8 1023.8 0.0
22/12:00pm 13.0 8.5 10.0 82 1.5 WNW 24 35 13 19 1023.9 1023.9 0.0
22/11:30am 12.9 9.0 10.8 87 1.1 NW 22 37 12 20 1024.1 1024.1 0.0
22/11:00am 14.2 9.7 10.0 76 2.2 NW 24 35 13 19 1024.3 1024.3 0.0
22/10:30am 13.3 8.1 8.8 74 2.2 WNW 26 35 14 19 1024.4 1024.4 0.0
22/10:00am 13.6 9.4 9.8 78 2.0 WNW 22 33 12 18 1024.5 1024.5 0.0
22/09:30am 12.8 8.2 9.8 82 1.5 NW 24 33 13 18 1024.6 1024.6 0.0
22/09:00am 12.6 8.9 10.1 85 1.3 WNW 20 28 11 15 1024.4 1024.4 0.0
22/08:30am 11.5 8.5 10.6 94 0.5 NW 17 24 9 13 1024.4 1024.4 0.0
22/08:00am 9.5 7.3 9.5 100 0.0 NW 11 15 6 8 1024.4 1024.4 0.0
22/07:30am 8.9 7.0 8.9 100 0.0 NW 9 13 5 7 1024.1 1024.1 0.0
22/07:00am 5.6 2.9 5.6 100 0.0 NW 9 9 5 5 1023.9 1023.9 0.0
22/06:30am 4.0 0.6 4.0 100 0.0 NW 11 11 6 6 1023.7 1023.7 0.0
22/06:00am 4.1 0.3 4.1 100 0.0 WNW 13 17 7 9 1023.4 1023.4 0.0
22/05:30am 2.4 -1.7 2.4 100 0.0 NW 13 13 7 7 1023.2 1023.1 0.0
22/05:00am 4.4 1.1 4.4 100 0.0 NW 11 13 6 7 1022.8 1022.7 0.0
22/04:30am 4.7 1.0 4.7 100 0.0 WNW 13 15 7 8 1022.6 1022.5 0.0
22/04:00am 3.3 -0.2 3.3 100 0.0 NW 11 15 6 8 1022.5 1022.4 0.0
22/03:30am 2.5 -1.6 2.5 100 0.0 NNW 13 15 7 8 1022.4 1022.3 0.0
22/03:00am 3.9 0.5 3.9 100 0.0 NW 11 13 6 7 1022.5 1022.4 0.0
22/02:30am 5.2 2.0 5.2 100 0.0 WNW 11 13 6 7 1022.5 1022.4 0.0
22/02:00am 5.3 1.8 5.3 100 0.0 WNW 13 15 7 8 1022.6 1022.5 0.0
22/01:30am 5.0 1.4 5.0 100 0.0 NW 13 17 7 9 1022.8 1022.7 0.0
22/01:00am 4.1 0.7 4.1 100 0.0 NW 11 13 6 7 1023.0 1022.9 0.0
22/12:30am 4.6 0.5 4.6 100 0.0 WNW 15 17 8 9 1023.1 1023.0 0.0
22/12:00am 4.7 1.0 4.7 100 0.0 WNW 13 15 7 8 1023.2 1023.1 0.0
 
Date/Time
CST
Temp
°C
App
Temp
°C
Dew
Point
°C
Rel
Hum
%
Delta-T
°C
Wind Press
QNH
hPa
Press
MSL
hPa
Rain since
9am
mm
Dir  Spd
km/h
Gust
km/h
Spd
kts
Gust
kts
21/11:30pm 4.9 1.3 4.9 100 0.0 WNW 13 17 7 9 1023.1 1023.0 0.0
21/11:00pm 5.0 1.4 5.0 100 0.0 WNW 13 15 7 8 1023.1 1023.0 0.0
21/10:30pm 4.7 1.4 4.7 100 0.0 WNW 11 15 6 8 1023.0 1022.9 0.0
21/10:00pm 5.1 1.5 5.1 100 0.0 WNW 13 15 7 8 1023.1 1023.0 0.0
21/09:30pm 5.3 1.8 5.3 100 0.0 WNW 13 17 7 9 1023.0 1022.9 0.0
21/09:00pm 5.3 1.8 5.3 100 0.0 WNW 13 15 7 8 1022.9 1022.8 0.0
21/08:30pm 5.0 1.8 5.0 100 0.0 NW 11 13 6 7 1022.8 1022.7 0.0
21/08:00pm 5.9 2.9 5.9 100 0.0 NW 11 13 6 7 1022.6 1022.5 0.0
21/07:30pm 7.4 4.6 6.8 96 0.3 WNW 11 15 6 8 1022.4 1022.3 0.0
21/07:00pm 8.4 5.2 6.9 90 0.7 WNW 13 15 7 8 1022.0 1021.9 0.0
21/06:30pm 9.7 6.5 7.0 83 1.3 W 13 17 7 9 1021.6 1021.5 0.0
21/06:00pm 10.2 7.2 7.6 84 1.2 W 13 20 7 11 1021.4 1021.3 0.0
21/05:30pm 10.8 7.9 8.0 83 1.4 WSW 13 20 7 11 1021.1 1021.0 0.0
21/05:00pm 11.9 7.3 8.2 78 1.8 WSW 22 33 12 18 1020.6 1020.5 0.0
21/04:30pm 11.6 6.7 8.6 82 1.5 WSW 24 33 13 18 1020.3 1020.2 0.0
21/04:00pm 12.6 8.4 8.3 75 2.1 WSW 20 32 11 17 1019.7 1019.7 0.0
21/03:30pm 13.9 9.7 8.1 68 2.9 WSW 20 28 11 15 1019.3 1019.3 0.0
21/03:00pm 14.1 9.8 7.9 66 3.1 WSW 20 32 11 17 1019.2 1019.2 0.0
21/02:30pm 14.6 10.2 8.8 68 2.9 WSW 22 35 12 19 1018.9 1018.9 0.0
21/02:00pm 14.4 9.5 8.6 68 2.9 WSW 24 37 13 20 1019.1 1019.1 0.0
21/01:30pm 14.3 10.5 9.1 71 2.6 WSW 19 32 10 17 1019.1 1019.1 0.0
21/01:00pm 12.7 6.0 7.4 70 2.6 W 32 43 17 23 1019.0 1019.0 0.0
21/12:30pm 14.1 9.7 8.9 71 2.6 WSW 22 37 12 20 1018.6 1018.6 0.0
21/12:00pm 13.3 9.2 8.6 73 2.3 WSW 20 33 11 18 1018.4 1018.4 0.0
21/11:30am 14.0 9.6 9.0 72 2.5 SW 22 32 12 17 1018.3 1018.3 0.0
21/11:00am 13.9 9.9 8.9 72 2.5 SW 20 32 11 17 1018.2 1018.2 0.0
21/10:30am 13.7 9.4 9.2 74 2.3 SW 22 35 12 19 1018.0 1018.0 0.0
21/10:00am 13.3 8.0 8.4 72 2.4 SW 26 37 14 20 1017.8 1017.8 0.0
21/09:30am 12.9 8.3 9.5 80 1.7 SW 24 35 13 19 1017.5 1017.5 0.0
21/09:00am 12.5 7.6 10.0 85 1.3 SW 26 35 14 19 1017.0 1017.0 20.0
21/08:30am 11.4 6.9 10.0 91 0.7 SW 24 33 13 18 1016.7 1016.7 20.0
21/08:00am 11.0 5.4 10.2 95 0.4 SW 30 43 16 23 1016.1 1016.1 20.0
21/07:30am 10.6 5.4 10.3 98 0.2 SW 28 39 15 21 1015.5 1015.5 20.0
21/07:00am 10.2 5.0 10.2 100 0.0 SW 28 39 15 21 1014.9 1014.9 20.0
21/06:30am 9.2 5.2 9.2 100 0.0 WSW 20 30 11 16 1014.4 1014.4 20.0
21/06:00am 9.0 5.6 9.0 100 0.0 WSW 17 26 9 14 1013.7 1013.7 20.0
21/05:30am 6.9 3.3 6.9 100 0.0 WNW 15 20 8 11 1013.4 1013.4 20.0
21/05:00am 6.6 3.7 6.6 100 0.0 WNW 11 13 6 7 1012.8 1012.8 19.8
21/04:30am 6.9 3.7 6.9 100 0.0 WNW 13 20 7 11 1012.5 1012.5 19.8
21/04:00am 6.5 3.2 6.5 100 0.0 WNW 13 15 7 8 1012.4 1012.4 19.8
21/03:30am 6.7 4.2 6.7 100 0.0 WNW 9 13 5 7 1012.3 1012.3 19.8
21/03:00am 6.4 2.7 6.4 100 0.0 WNW 15 20 8 11 1012.3 1012.3 19.8
21/02:30am 6.2 3.2 6.2 100 0.0 NW 11 13 6 7 1012.2 1012.2 19.8
21/02:00am 5.6 3.5 5.6 100 0.0 NW 6 7 3 4 1012.5 1012.5 19.8
21/01:30am 6.4 3.9 6.4 100 0.0 NW 9 11 5 6 1013.1 1013.1 19.6
21/01:00am 8.3 6.6 8.3 100 0.0 NW 7 9 4 5 1013.1 1013.1 19.6
21/12:30am 8.8 6.8 8.8 100 0.0 NW 9 11 5 6 1013.3 1013.3 19.6
21/12:00am 9.3 7.5 9.3 100 0.0 WNW 9 13 5 7 1013.3 1013.3 19.6
 
Date/Time
CST
Temp
°C
App
Temp
°C
Dew
Point
°C
Rel
Hum
%
Delta-T
°C
Wind Press
QNH
hPa
Press
MSL
hPa
Rain since
9am
mm
Dir  Spd
km/h
Gust
km/h
Spd
kts
Gust
kts
20/11:30pm 9.2 7.7 9.2 100 0.0 WNW 7 9 4 5 1013.7 1013.7 19.6
20/11:00pm 9.2 7.7 9.2 100 0.0 NW 7 9 4 5 1013.5 1013.5 19.6
20/10:30pm 9.4 8.0 9.4 100 0.0 WNW 7 9 4 5 1013.7 1013.7 19.6
20/10:00pm 9.5 8.3 9.5 100 0.0 W 6 9 3 5 1013.8 1013.8 19.6
20/09:30pm 9.7 8.0 9.7 100 0.0 WSW 9 19 5 10 1014.3 1014.3 19.4
20/09:00pm 9.9 7.5 9.9 100 0.0 WSW 13 19 7 10 1014.3 1014.3 18.4
20/08:30pm 10.2 7.5 10.2 100 0.0 SW 15 22 8 12 1013.8 1013.8 17.6
20/08:00pm 10.3 6.8 10.3 100 0.0 SW 19 28 10 15 1013.8 1013.8 17.6
20/07:30pm 10.5 7.5 10.5 100 0.0 SW 17 26 9 14 1013.8 1013.8 17.4
20/07:00pm 10.9 9.1 10.9 100 0.0 W 11 17 6 9 1014.1 1014.1 16.4
20/06:30pm 11.1 9.4 11.1 100 0.0 W 11 17 6 9 1013.8 1013.8 14.4
20/06:00pm 11.7 10.9 11.7 100 0.0 WNW 7 9 4 5 1013.2 1013.2 13.0
20/05:30pm 11.8 10.3 11.8 100 0.0 NW 11 15 6 8 1013.0 1013.0 12.4
20/05:00pm 11.9 10.4 11.9 100 0.0 WNW 11 15 6 8 1012.8 1012.8 11.8
20/04:30pm 12.1 10.3 12.1 100 0.0 NW 13 19 7 10 1013.1 1013.1 10.4
20/04:00pm 12.2 10.0 12.2 100 0.0 NW 15 19 8 10 1012.8 1012.8 8.8
20/03:30pm 12.2 10.0 12.2 100 0.0 WNW 15 20 8 11 1012.6 1012.6 6.8
20/03:00pm 12.5 10.8 12.5 100 0.0 NW 13 22 7 12 1012.6 1012.6 4.4
20/02:30pm 12.7 11.1 12.7 100 0.0 NW 13 24 7 13 1012.6 1012.6 2.6

Other formats

Comma delimited format used in spreadsheet applications
http://www.bom.gov.au/fwo/IDS60801/IDS60801.94809.axf

JavaScript Object Notation format (JSON) in row-major order
http://www.bom.gov.au/fwo/IDS60801/IDS60801.94809.json

Data quality

Most of these data are generated automatically and are frequently updated. Quality checks on data are not normally performed. It is possible for incorrect values to appear. Refer to information at About Latest Weather Observations and please check the disclaimer before using these data.